createdAt,value
2022-12-16T00:01:51.931Z,2.20
2022-12-16T00:04:23.369Z,2.50
2022-12-16T00:06:54.849Z,2.20
2022-12-16T00:09:26.277Z,2.40
2022-12-16T00:11:57.764Z,1.92
2022-12-16T00:14:29.193Z,2.15
2022-12-16T00:17:00.589Z,2.30
2022-12-16T00:19:32.122Z,2.22
2022-12-16T00:22:03.505Z,1.88
2022-12-16T00:24:34.909Z,1.90
2022-12-16T00:27:06.345Z,2.00
2022-12-16T00:29:37.755Z,1.77
2022-12-16T00:32:09.180Z,2.20
2022-12-16T00:34:40.596Z,2.10
2022-12-16T00:37:12.535Z,2.13
2022-12-16T00:39:43.954Z,2.38
2022-12-16T00:42:15.321Z,2.25
2022-12-16T00:44:46.720Z,2.15
2022-12-16T00:47:18.142Z,2.20
2022-12-16T00:49:49.552Z,2.10
2022-12-16T00:52:20.933Z,2.10
2022-12-16T00:54:52.364Z,2.60
2022-12-16T00:57:23.813Z,2.30
2022-12-16T00:59:55.268Z,3.00
2022-12-16T01:02:26.818Z,2.60
2022-12-16T01:04:58.427Z,2.65
2022-12-16T01:07:29.819Z,2.95
2022-12-16T01:10:01.400Z,3.10
2022-12-16T01:12:33.897Z,2.78
2022-12-16T01:15:07.756Z,3.00
2022-12-16T01:17:39.971Z,3.07
2022-12-16T01:20:11.670Z,3.97
2022-12-16T01:22:43.061Z,3.50
2022-12-16T01:25:14.482Z,3.35
2022-12-16T01:27:45.874Z,3.55
2022-12-16T01:30:17.280Z,2.65
2022-12-16T01:32:48.725Z,3.47
2022-12-16T01:35:51.536Z,2.90
2022-12-16T01:38:11.500Z,2.50
2022-12-16T01:40:42.900Z,2.63
2022-12-16T01:43:15.431Z,2.40
2022-12-16T01:45:46.881Z,2.53
2022-12-16T01:48:38.079Z,2.37
2022-12-16T01:51:24.555Z,2.25
2022-12-16T01:54:42.333Z,2.70
2022-12-16T01:57:18.640Z,1.98
2022-12-16T01:59:53.954Z,2.42
2022-12-16T02:02:25.810Z,2.23
2022-12-16T02:04:57.867Z,2.13
2022-12-16T02:07:29.325Z,2.40
2022-12-16T02:10:00.779Z,2.03
2022-12-16T02:12:59.348Z,1.70
2022-12-16T02:15:42.561Z,2.10
2022-12-16T02:18:45.096Z,1.85
2022-12-16T02:21:38.935Z,1.87
2022-12-16T02:24:32.208Z,1.80
2022-12-16T02:27:44.795Z,1.88
2022-12-16T02:30:24.690Z,1.77
2022-12-16T02:33:31.886Z,1.85
2022-12-16T02:36:30.517Z,2.10
2022-12-16T02:39:23.373Z,2.40
2022-12-16T02:42:26.457Z,2.03
2022-12-16T02:45:01.926Z,2.05
2022-12-16T02:47:33.350Z,2.10
2022-12-16T02:50:14.738Z,1.80
2022-12-16T02:52:46.284Z,1.77
2022-12-16T02:55:17.856Z,2.00
2022-12-16T02:58:14.150Z,1.75
2022-12-16T03:01:05.807Z,2.00
2022-12-16T03:03:50.024Z,1.90
2022-12-16T03:06:23.145Z,1.98
2022-12-16T03:08:59.387Z,1.73
2022-12-16T03:11:32.280Z,1.70
2022-12-16T03:14:07.355Z,1.60
2022-12-16T03:16:39.159Z,1.80
2022-12-16T03:19:11.728Z,1.98
2022-12-16T03:21:55.571Z,1.83
2022-12-16T03:24:28.040Z,2.05
2022-12-16T03:27:21.020Z,1.52
2022-12-16T03:30:04.610Z,1.58
2022-12-16T03:32:41.545Z,1.77
2022-12-16T03:35:18.949Z,1.65
2022-12-16T03:37:54.697Z,3.78
2022-12-16T03:40:28.368Z,3.05
2022-12-16T03:43:02.525Z,2.22
2022-12-16T03:45:40.687Z,1.85
2022-12-16T03:48:13.669Z,1.50
2022-12-16T03:50:45.121Z,1.80
2022-12-16T03:53:16.569Z,1.70
2022-12-16T03:55:47.968Z,1.90
2022-12-16T03:58:19.444Z,2.10
2022-12-16T04:00:50.832Z,1.63
2022-12-16T04:03:22.253Z,1.85
2022-12-16T04:05:53.717Z,1.77
2022-12-16T04:08:25.178Z,2.10
2022-12-16T04:10:56.653Z,1.70
2022-12-16T04:13:28.109Z,1.60
2022-12-16T04:16:00.478Z,1.67
2022-12-16T04:18:32.816Z,1.80
2022-12-16T04:21:04.616Z,1.50
2022-12-16T04:23:37.797Z,1.83
2022-12-16T04:26:09.551Z,1.42
2022-12-16T04:28:41.022Z,1.60
2022-12-16T04:31:12.550Z,1.67
2022-12-16T04:33:44.111Z,1.30
2022-12-16T04:36:15.600Z,1.67
2022-12-16T04:38:47.043Z,1.53
2022-12-16T04:41:18.579Z,1.80
2022-12-16T04:43:50.098Z,1.80
2022-12-16T04:46:21.698Z,2.03
2022-12-16T04:48:53.076Z,1.63
2022-12-16T04:51:24.487Z,1.90
2022-12-16T04:53:55.861Z,2.20
2022-12-16T04:56:30.731Z,1.70
2022-12-16T04:59:02.150Z,1.83
2022-12-16T05:01:33.634Z,1.65
2022-12-16T05:04:05.311Z,2.20
2022-12-16T05:06:36.884Z,1.92
2022-12-16T05:09:08.300Z,1.98
2022-12-16T05:11:39.687Z,1.55
2022-12-16T05:14:11.132Z,2.03
2022-12-16T05:16:42.567Z,2.13
2022-12-16T05:19:14.127Z,1.85
2022-12-16T05:21:45.519Z,1.55
2022-12-16T05:24:16.970Z,1.60
2022-12-16T05:26:48.409Z,1.63
2022-12-16T05:29:19.829Z,1.70
2022-12-16T05:31:51.280Z,1.70
2022-12-16T05:34:22.738Z,1.88
2022-12-16T05:36:54.121Z,1.70
2022-12-16T05:39:25.556Z,1.90
2022-12-16T05:41:57.176Z,2.08
2022-12-16T05:44:28.618Z,1.85
2022-12-16T05:47:00.169Z,2.10
2022-12-16T05:49:31.676Z,2.10
2022-12-16T05:52:03.572Z,2.13
2022-12-16T05:54:34.984Z,2.15
2022-12-16T05:57:06.389Z,1.88
2022-12-16T05:59:37.761Z,2.13
2022-12-16T06:02:09.304Z,2.20
2022-12-16T06:04:40.856Z,2.05
2022-12-16T06:07:12.239Z,1.95
2022-12-16T06:09:43.639Z,2.60
2022-12-16T06:12:15.108Z,2.40
2022-12-16T06:14:46.519Z,2.63
2022-12-16T06:17:18.127Z,2.92
2022-12-16T06:19:49.564Z,3.35
2022-12-16T06:22:21.008Z,3.20
2022-12-16T06:24:52.395Z,3.83
2022-12-16T06:27:23.765Z,3.30
2022-12-16T06:29:58.717Z,3.20
2022-12-16T06:32:30.132Z,3.03
2022-12-16T06:35:01.550Z,3.40
2022-12-16T06:37:32.985Z,3.40
2022-12-16T06:40:05.043Z,2.85
2022-12-16T06:42:40.589Z,3.20
2022-12-16T06:45:12.384Z,2.78
2022-12-16T06:47:44.260Z,2.95
2022-12-16T06:50:15.773Z,2.80
2022-12-16T06:52:47.245Z,2.90
2022-12-16T06:55:18.661Z,2.50
2022-12-16T06:57:57.200Z,2.38
2022-12-16T07:00:28.659Z,3.47
2022-12-16T07:03:00.185Z,3.05
2022-12-16T07:05:31.672Z,3.00
2022-12-16T07:08:03.170Z,2.90
2022-12-16T07:10:34.754Z,3.03
2022-12-16T07:13:06.166Z,3.28
2022-12-16T07:15:37.591Z,3.75
2022-12-16T07:18:08.998Z,3.37
2022-12-16T07:20:40.452Z,3.17
2022-12-16T07:23:17.732Z,3.20
2022-12-16T07:25:51.136Z,3.20
2022-12-16T07:28:22.578Z,2.95
2022-12-16T07:30:54.040Z,3.88
2022-12-16T07:33:25.461Z,3.10
2022-12-16T07:35:56.914Z,3.22
2022-12-16T07:38:28.491Z,3.60
2022-12-16T07:41:01.125Z,3.42
2022-12-16T07:43:33.013Z,3.50
2022-12-16T07:46:04.877Z,3.00
2022-12-16T07:48:36.388Z,3.35
2022-12-16T07:51:07.834Z,3.13
2022-12-16T07:53:40.377Z,2.70
2022-12-16T07:56:12.200Z,3.33
2022-12-16T07:58:43.601Z,3.35
2022-12-16T08:01:15.345Z,3.33
2022-12-16T08:03:46.844Z,3.40
2022-12-16T08:06:18.319Z,3.00
2022-12-16T08:08:49.743Z,3.77
2022-12-16T08:11:21.161Z,3.78
2022-12-16T08:13:52.662Z,3.08
2022-12-16T08:16:25.079Z,3.67
2022-12-16T08:18:56.619Z,3.90
2022-12-16T08:21:28.053Z,3.17
2022-12-16T08:24:00.547Z,3.08
2022-12-16T08:26:31.993Z,3.42
2022-12-16T08:29:34.775Z,3.75
2022-12-16T08:31:55.018Z,4.28
2022-12-16T08:34:26.813Z,3.70
2022-12-16T08:36:58.236Z,3.90
2022-12-16T08:39:29.618Z,3.47
2022-12-16T08:42:01.065Z,3.90
2022-12-16T08:44:32.485Z,3.43
2022-12-16T08:47:04.061Z,4.22
2022-12-16T08:49:35.579Z,4.63
2022-12-16T08:52:07.088Z,3.67
2022-12-16T08:54:38.497Z,3.78
2022-12-16T08:57:10.257Z,3.72
2022-12-16T08:59:41.701Z,3.67
2022-12-16T09:02:13.453Z,3.55
2022-12-16T09:04:44.959Z,3.50
2022-12-16T09:07:16.380Z,3.63
2022-12-16T09:09:47.835Z,3.58
2022-12-16T09:12:19.245Z,3.60
2022-12-16T09:14:50.708Z,3.43
2022-12-16T09:17:22.755Z,3.30
2022-12-16T09:19:54.203Z,3.40
2022-12-16T09:22:26.764Z,3.28
2022-12-16T09:24:58.177Z,3.30
2022-12-16T09:27:29.587Z,3.40
2022-12-16T09:30:01.013Z,3.28
2022-12-16T09:32:32.437Z,3.53
2022-12-16T09:35:07.420Z,3.28
2022-12-16T09:37:49.872Z,3.22
2022-12-16T09:40:22.505Z,3.15
2022-12-16T09:43:12.609Z,3.78
2022-12-16T09:45:52.846Z,3.45
2022-12-16T09:48:48.486Z,3.20
2022-12-16T09:51:20.545Z,3.30
2022-12-16T09:53:56.079Z,4.22
2022-12-16T09:56:33.146Z,3.83
2022-12-16T09:59:14.240Z,3.30
2022-12-16T10:01:46.057Z,3.22
2022-12-16T10:04:18.072Z,3.05
2022-12-16T10:06:52.817Z,3.67
2022-12-16T10:09:29.777Z,3.13
2022-12-16T10:12:29.032Z,3.33
2022-12-16T10:15:16.488Z,3.30
2022-12-16T10:17:47.908Z,3.15
2022-12-16T10:20:35.291Z,3.22
2022-12-16T10:23:46.971Z,3.00
2022-12-16T10:26:32.030Z,2.88
2022-12-16T10:29:34.362Z,2.78
2022-12-16T10:32:42.585Z,2.70
2022-12-16T10:35:23.257Z,2.72
2022-12-16T10:37:54.772Z,2.60
2022-12-16T10:40:30.695Z,3.28
2022-12-16T10:43:12.842Z,3.20
2022-12-16T10:45:48.800Z,3.00
2022-12-16T10:48:32.130Z,2.43
2022-12-16T10:51:13.482Z,2.90
2022-12-16T10:53:49.491Z,2.85
2022-12-16T10:56:29.885Z,2.80
2022-12-16T10:59:08.708Z,3.10
2022-12-16T11:01:40.804Z,3.13
2022-12-16T11:04:44.288Z,2.90
2022-12-16T11:07:38.438Z,2.67
2022-12-16T11:10:43.457Z,2.70
2022-12-16T11:13:28.714Z,2.80
2022-12-16T11:16:11.024Z,2.95
2022-12-16T11:18:50.072Z,2.83
2022-12-16T11:21:22.402Z,3.05
2022-12-16T11:24:07.888Z,2.67
2022-12-16T11:26:52.822Z,3.13
2022-12-16T11:29:24.223Z,2.67
2022-12-16T11:32:21.295Z,2.50
2022-12-16T11:34:57.845Z,2.60
2022-12-16T11:37:30.643Z,2.38
2022-12-16T11:40:03.145Z,2.58
2022-12-16T11:42:35.988Z,2.80
2022-12-16T11:45:14.548Z,1.90
2022-12-16T11:47:58.667Z,2.45
2022-12-16T11:50:34.157Z,2.10
2022-12-16T11:53:13.755Z,2.53
2022-12-16T11:56:06.973Z,2.03
2022-12-16T11:58:50.180Z,2.53
2022-12-16T12:01:35.364Z,2.47
2022-12-16T12:04:09.211Z,2.33
2022-12-16T12:06:59.394Z,2.33
2022-12-16T12:09:38.206Z,2.75
2022-12-16T12:12:14.956Z,2.10
2022-12-16T12:14:53.079Z,2.20
2022-12-16T12:17:46.102Z,2.33
2022-12-16T12:20:29.833Z,2.50
2022-12-16T12:23:06.965Z,2.00
2022-12-16T12:25:53.607Z,2.30
2022-12-16T12:28:41.001Z,1.88
2022-12-16T12:31:21.364Z,1.70
2022-12-16T12:34:01.998Z,2.00
2022-12-16T12:36:56.791Z,1.92
2022-12-16T12:39:44.232Z,2.00
2022-12-16T12:42:28.758Z,2.15
2022-12-16T12:45:41.960Z,2.00
2022-12-16T12:48:28.736Z,1.90
2022-12-16T12:51:09.830Z,2.08
2022-12-16T12:54:23.304Z,2.17
2022-12-16T12:56:57.870Z,1.75
2022-12-16T13:00:05.805Z,1.95
2022-12-16T13:03:14.063Z,1.73
2022-12-16T13:05:46.602Z,1.53
2022-12-16T13:08:50.519Z,1.67
2022-12-16T13:11:23.810Z,1.95
2022-12-16T13:13:55.568Z,2.00
2022-12-16T13:16:57.494Z,1.60
2022-12-16T13:19:28.890Z,1.60
2022-12-16T13:22:00.327Z,1.77
2022-12-16T13:24:46.713Z,1.67
2022-12-16T13:27:18.228Z,1.30
2022-12-16T13:30:03.667Z,1.60
2022-12-16T13:32:35.094Z,1.60
2022-12-16T13:35:09.365Z,1.90
2022-12-16T13:37:55.130Z,1.80
2022-12-16T13:40:26.620Z,2.05
2022-12-16T13:42:58.251Z,1.90
2022-12-16T13:45:36.483Z,2.10
2022-12-16T13:48:30.297Z,1.73
2022-12-16T13:51:01.943Z,1.80
2022-12-16T13:53:51.606Z,3.35
2022-12-16T13:56:33.596Z,1.90
2022-12-16T13:59:11.701Z,2.40
2022-12-16T14:01:55.315Z,1.90
2022-12-16T14:04:31.299Z,1.80
2022-12-16T14:07:02.898Z,1.85
2022-12-16T14:09:37.434Z,1.63
2022-12-16T14:12:21.051Z,2.00
2022-12-16T14:15:00.115Z,1.85
2022-12-16T14:17:42.058Z,1.77
2022-12-16T14:20:24.243Z,1.65
2022-12-16T14:23:03.775Z,2.05
2022-12-16T14:25:35.693Z,2.05
2022-12-16T14:28:45.479Z,1.80
2022-12-16T14:31:25.096Z,1.48
2022-12-16T14:33:56.583Z,1.33
2022-12-16T14:36:28.989Z,1.60
2022-12-16T14:39:00.440Z,1.95
2022-12-16T14:41:32.003Z,2.10
2022-12-16T14:44:06.012Z,2.17
2022-12-16T14:46:37.470Z,2.30
2022-12-16T14:49:19.780Z,2.08
2022-12-16T14:51:51.226Z,2.35
2022-12-16T14:54:35.953Z,2.13
2022-12-16T14:57:12.868Z,2.38
2022-12-16T14:59:44.348Z,2.20
2022-12-16T15:02:42.842Z,2.20
2022-12-16T15:05:19.186Z,2.20
2022-12-16T15:07:50.869Z,2.58
2022-12-16T15:10:27.132Z,2.60
2022-12-16T15:12:59.017Z,2.50
2022-12-16T15:15:43.216Z,2.58
2022-12-16T15:18:20.312Z,2.63
2022-12-16T15:20:55.468Z,3.15
2022-12-16T15:23:32.222Z,2.92
2022-12-16T15:26:04.412Z,3.30
2022-12-16T15:28:35.770Z,3.10
2022-12-16T15:31:23.559Z,2.90
2022-12-16T15:34:23.256Z,3.53
2022-12-16T15:36:54.742Z,3.70
2022-12-16T15:39:41.334Z,3.53
2022-12-16T15:42:31.017Z,3.55
2022-12-16T15:45:02.578Z,3.83
2022-12-16T15:47:38.388Z,3.27
2022-12-16T15:50:14.317Z,3.90
2022-12-16T15:52:45.820Z,4.87
2022-12-16T15:55:38.161Z,4.25
2022-12-16T15:58:33.259Z,4.90
2022-12-16T16:01:06.990Z,3.40
2022-12-16T16:03:49.957Z,3.40
2022-12-16T16:06:26.633Z,3.53
2022-12-16T16:08:58.072Z,3.75
2022-12-16T16:11:29.461Z,3.95
2022-12-16T16:14:07.134Z,4.05
2022-12-16T16:16:40.813Z,16.30
2022-12-16T16:19:25.041Z,12.50
2022-12-16T16:21:56.486Z,7.93
2022-12-16T16:24:28.049Z,8.27
2022-12-16T16:27:02.049Z,7.80
2022-12-16T16:29:33.540Z,7.15
2022-12-16T16:32:05.132Z,6.50
2022-12-16T16:34:36.525Z,9.57
2022-12-16T16:37:14.405Z,27.95
2022-12-16T16:39:45.791Z,48.47
2022-12-16T16:42:17.278Z,39.65
2022-12-16T16:44:48.716Z,37.47
2022-12-16T16:47:20.108Z,47.72
2022-12-16T16:49:51.556Z,18.87
2022-12-16T16:52:24.832Z,14.32
2022-12-16T16:54:56.290Z,12.02
2022-12-16T16:57:32.312Z,11.45
2022-12-16T17:00:04.213Z,11.93
2022-12-16T17:02:40.558Z,13.73
2022-12-16T17:05:12.989Z,13.85
2022-12-16T17:07:47.027Z,10.50
2022-12-16T17:10:22.074Z,8.25
2022-12-16T17:12:53.455Z,7.82
2022-12-16T17:15:31.326Z,8.03
2022-12-16T17:18:04.035Z,7.70
2022-12-16T17:20:35.452Z,8.33
2022-12-16T17:23:06.929Z,9.25
2022-12-16T17:25:38.374Z,9.40
2022-12-16T17:28:11.534Z,9.60
2022-12-16T17:30:47.314Z,9.80
2022-12-16T17:33:19.159Z,9.95
2022-12-16T17:35:51.584Z,11.30
2022-12-16T17:38:23.016Z,10.20
2022-12-16T17:40:54.379Z,10.18
2022-12-16T17:43:25.827Z,9.82
2022-12-16T17:46:03.515Z,11.10
2022-12-16T17:48:34.993Z,12.18
2022-12-16T17:51:06.406Z,10.73
2022-12-16T17:53:37.795Z,11.75
2022-12-16T17:56:09.196Z,11.27
2022-12-16T17:58:40.714Z,11.98
2022-12-16T18:01:12.161Z,9.82
2022-12-16T18:03:43.626Z,8.40
2022-12-16T18:06:15.129Z,8.27
2022-12-16T18:08:46.544Z,9.13
2022-12-16T18:11:17.985Z,9.43
2022-12-16T18:13:49.405Z,9.55
2022-12-16T18:16:20.909Z,10.75
2022-12-16T18:18:52.450Z,8.80
2022-12-16T18:21:23.979Z,10.07
2022-12-16T18:23:55.460Z,10.30
2022-12-16T18:26:27.120Z,11.53
2022-12-16T18:28:58.609Z,11.95
2022-12-16T18:31:30.162Z,11.52
2022-12-16T18:34:01.647Z,13.35
2022-12-16T18:36:33.083Z,13.25
2022-12-16T18:39:04.595Z,13.35
2022-12-16T18:41:42.096Z,14.82
2022-12-16T18:44:14.082Z,12.38
2022-12-16T18:46:46.839Z,12.70
2022-12-16T18:49:18.428Z,12.57
2022-12-16T18:51:49.875Z,12.48
2022-12-16T18:54:21.339Z,13.55
2022-12-16T18:56:52.839Z,14.27
2022-12-16T18:59:24.325Z,13.70
2022-12-16T19:01:56.006Z,13.63
2022-12-16T19:04:27.476Z,15.52
2022-12-16T19:06:58.917Z,15.13
2022-12-16T19:09:30.349Z,16.52
2022-12-16T19:12:01.750Z,16.33
2022-12-16T19:14:33.158Z,16.95
2022-12-16T19:17:04.854Z,18.70
2022-12-16T19:19:36.246Z,21.48
2022-12-16T19:22:07.682Z,17.90
2022-12-16T19:24:39.105Z,18.20
2022-12-16T19:27:15.161Z,16.60
2022-12-16T19:29:46.941Z,16.25
2022-12-16T19:32:18.426Z,16.25
2022-12-16T19:34:49.852Z,17.17
2022-12-16T19:37:21.276Z,18.95
2022-12-16T19:39:53.837Z,18.40
2022-12-16T19:42:25.309Z,15.82
2022-12-16T19:44:56.887Z,16.02
2022-12-16T19:47:28.413Z,17.58
2022-12-16T19:49:59.800Z,18.77
2022-12-16T19:52:31.274Z,17.67
2022-12-16T19:55:02.710Z,18.67
2022-12-16T19:57:34.165Z,19.98
2022-12-16T20:00:06.631Z,18.73
2022-12-16T20:02:38.324Z,21.77
2022-12-16T20:05:09.906Z,23.33
2022-12-16T20:07:41.497Z,25.25
2022-12-16T20:10:12.966Z,26.05
2022-12-16T20:12:44.372Z,24.33
2022-12-16T20:15:16.176Z,26.10
2022-12-16T20:17:47.603Z,27.40
2022-12-16T20:20:19.167Z,30.48
2022-12-16T20:22:50.585Z,34.25
2022-12-16T20:25:23.440Z,32.77
2022-12-16T20:27:55.082Z,33.93
2022-12-16T20:30:28.007Z,33.75
2022-12-16T20:32:59.445Z,34.67
2022-12-16T20:35:30.872Z,40.40
2022-12-16T20:38:02.536Z,37.85
2022-12-16T20:40:34.019Z,35.77
2022-12-16T20:43:05.415Z,33.67
2022-12-16T20:45:39.715Z,34.13
2022-12-16T20:48:15.520Z,35.65
2022-12-16T20:50:58.351Z,35.17
2022-12-16T20:53:29.753Z,39.65
2022-12-16T20:56:01.605Z,43.95
2022-12-16T20:58:33.059Z,45.72
2022-12-16T21:01:04.958Z,43.95
2022-12-16T21:03:36.418Z,44.80
2022-12-16T21:06:07.900Z,46.50
2022-12-16T21:08:39.506Z,47.20
2022-12-16T21:11:10.966Z,44.05
2022-12-16T21:13:42.416Z,43.05
2022-12-16T21:16:13.936Z,42.67
2022-12-16T21:18:45.857Z,44.85
2022-12-16T21:21:17.309Z,42.80
2022-12-16T21:23:48.700Z,45.67
2022-12-16T21:26:20.364Z,46.50
2022-12-16T21:28:51.875Z,43.55
2022-12-16T21:31:23.538Z,39.17
2022-12-16T21:33:55.480Z,41.17
2022-12-16T21:36:26.952Z,42.25
2022-12-16T21:38:58.376Z,42.28
2022-12-16T21:41:29.841Z,42.70
2022-12-16T21:44:01.214Z,46.30
2022-12-16T21:46:32.622Z,45.20
2022-12-16T21:49:04.073Z,43.38
2022-12-16T21:51:36.662Z,41.05
2022-12-16T21:54:09.600Z,41.45
2022-12-16T21:56:41.343Z,42.20
2022-12-16T21:59:12.808Z,41.85
2022-12-16T22:01:45.643Z,42.35
2022-12-16T22:04:17.127Z,42.95
2022-12-16T22:09:39.973Z,44.38
2022-12-16T22:12:11.425Z,43.22
2022-12-16T22:14:42.877Z,44.50
2022-12-16T22:17:14.398Z,41.80
2022-12-16T22:19:45.902Z,42.92
2022-12-16T22:22:17.343Z,41.75
2022-12-16T22:24:48.790Z,40.92
2022-12-16T22:27:20.408Z,40.97
2022-12-16T22:29:51.803Z,43.97
2022-12-16T22:32:23.250Z,41.85
2022-12-16T22:34:54.684Z,41.95
2022-12-16T22:37:27.165Z,43.08
2022-12-16T22:39:58.582Z,39.00
2022-12-16T22:42:30.027Z,35.97
2022-12-16T22:45:01.462Z,37.20
2022-12-16T22:47:33.015Z,38.10
2022-12-16T22:50:04.834Z,36.45
2022-12-16T22:52:36.280Z,34.40
2022-12-16T22:55:08.024Z,34.83
2022-12-16T22:57:39.432Z,32.43
2022-12-16T23:00:11.524Z,30.35
2022-12-16T23:02:43.016Z,31.27
2022-12-16T23:05:14.454Z,26.45
2022-12-16T23:07:45.890Z,23.40
2022-12-16T23:10:17.317Z,21.30
2022-12-16T23:12:48.708Z,19.98
2022-12-16T23:15:20.169Z,21.70
2022-12-16T23:17:51.586Z,20.77
2022-12-16T23:20:23.264Z,18.73
2022-12-16T23:22:55.408Z,16.65
2022-12-16T23:25:27.636Z,15.27
2022-12-16T23:27:59.075Z,14.17
2022-12-16T23:30:30.501Z,14.20
2022-12-16T23:33:03.758Z,15.40
2022-12-16T23:35:35.161Z,15.80
2022-12-16T23:38:07.205Z,16.05
2022-12-16T23:40:38.671Z,16.95
2022-12-16T23:43:10.140Z,18.70
2022-12-16T23:45:43.605Z,17.23
2022-12-16T23:48:17.377Z,18.52
2022-12-16T23:50:48.837Z,19.30
2022-12-16T23:53:20.254Z,16.63
2022-12-16T23:55:57.981Z,17.67
2022-12-16T23:58:29.409Z,18.60
